Time;durP1;ratioP1;P1;durP2;ratioP2;P2;SDS_P1;SDS_P2;PMS_P1;PMS_P2;Temp;Humidity;BMP_temperature;BMP_pressure;BME280_temperature;BME280_humidity;BME280_pressure;Samples;Min_cycle;Max_cycle;Signal;HPM_P1;HPM_P2
2022/05/11 00:01:14;;;;;;;;;;;;;;;25.77;85.21;98764.19;5025805;28;19921;-38
2022/05/11 00:03:40;;;;;;;;;;;;;;;25.66;86.78;98767.06;5030770;28;19932;-38
2022/05/11 00:06:05;;;;;;;;;;;;;;;25.37;88.29;98765.47;5029898;28;19917;-38
2022/05/11 00:08:31;;;;;;;;;;;;;;;25.36;88.05;98758.53;5026622;28;19935;-38
2022/05/11 00:10:56;;;;;;;;;;;;;;;25.51;87.94;98756.19;5029088;28;20006;-38
2022/05/11 00:13:21;;;;;;;;;;;;;;;25.50;87.79;98753.69;5014571;28;19928;-38
2022/05/11 00:15:46;;;;;;;;;;;;;;;25.59;87.76;98752.78;5032153;28;20011;-38
2022/05/11 00:18:12;;;;;;;;;;;;;;;25.64;87.28;98755.84;5031827;28;20095;-38
2022/05/11 00:20:37;;;;;;;;;;;;;;;25.46;87.96;98747.91;5025292;28;19925;-38
2022/05/11 00:23:03;;;;;;;;;;;;;;;25.28;88.33;98750.53;5027773;28;19928;-38
2022/05/11 00:25:28;;;;;;;;;;;;;;;25.51;87.81;98744.81;5027731;28;19952;-38
2022/05/11 00:27:54;;;;;;;;;;;;;;;25.44;88.37;98741.97;5029923;28;19967;-38
2022/05/11 00:30:19;;;;;;;;;;;;;;;25.34;87.48;98744.69;5025659;28;20500;-38
2022/05/11 00:32:44;;;;;;;;;;;;;;;24.68;92.67;98739.59;5028751;28;19944;-38
2022/05/11 00:35:09;;;;;;;;;;;;;;;24.39;93.96;98741.34;5027555;28;19916;-38
2022/05/11 00:37:35;;;;;;;;;;;;;;;24.96;91.56;98736.00;5024540;28;19975;-38
2022/05/11 00:40:00;;;;;;;;;;;;;;;25.20;89.24;98732.00;5027441;28;20633;-39
2022/05/11 00:42:25;;;;;;;;;;;;;;;25.20;88.04;98732.00;5026960;28;20977;-38
2022/05/11 00:44:53;;;;;;;;;;;;;;;25.25;86.03;98719.22;5024143;28;19916;-38
2022/05/11 00:47:20;;;;;;;;;;;;;;;25.19;82.86;98730.34;5031392;28;20574;-38
2022/05/11 00:49:48;;;;;;;;;;;;;;;25.15;82.77;98721.03;5000820;28;19998;-38
2022/05/11 00:52:20;;;;;;;;;;;;;;;25.22;80.02;98714.22;5024489;28;19956;-38
2022/05/11 00:54:47;;;;;;;;;;;;;;;24.71;83.26;98732.25;5010362;28;19994;-38
2022/05/11 00:57:17;;;;;;;;;;;;;;;24.97;79.97;98727.09;4998434;28;19971;-38
2022/05/11 00:59:43;;;;;;;;;;;;;;;24.49;80.28;98725.53;5023787;28;20370;-38
2022/05/11 01:02:08;;;;;;;;;;;;;;;24.49;81.89;98722.91;5027359;28;19924;-38
2022/05/11 01:04:34;;;;;;;;;;;;;;;24.91;79.93;98705.81;5024656;28;19968;-38
2022/05/11 01:07:00;;;;;;;;;;;;;;;25.22;79.77;98698.41;5001211;28;19925;-38
2022/05/11 01:09:25;;;;;;;;;;;;;;;25.10;80.45;98699.59;5024774;28;19920;-38
2022/05/11 01:11:51;;;;;;;;;;;;;;;25.17;81.82;98700.66;5025512;28;20394;-38
2022/05/11 01:14:17;;;;;;;;;;;;;;;24.81;84.83;98706.69;5009364;28;19985;-38
2022/05/11 01:16:43;;;;;;;;;;;;;;;24.73;85.92;98700.50;5014836;28;19953;-38
2022/05/11 01:19:08;;;;;;;;;;;;;;;24.84;84.79;98705.56;5025712;28;20023;-38
2022/05/11 01:21:38;;;;;;;;;;;;;;;25.00;80.01;98697.03;5006933;28;19947;-38
2022/05/11 01:24:07;;;;;;;;;;;;;;;24.96;78.35;98696.47;5010478;28;20019;-38
2022/05/11 01:26:33;;;;;;;;;;;;;;;24.86;77.30;98693.09;5005463;28;19971;-38
2022/05/11 01:28:58;;;;;;;;;;;;;;;25.02;76.46;98682.72;5025448;28;20602;-38
2022/05/11 01:31:23;;;;;;;;;;;;;;;24.97;78.39;98682.31;5023219;28;19921;-38
2022/05/11 01:33:49;;;;;;;;;;;;;;;24.73;82.36;98676.81;5008304;28;19953;-38
2022/05/11 01:36:28;;;;;;;;;;;;;;;24.72;83.67;98669.88;5025995;28;19921;-38
2022/05/11 01:38:59;;;;;;;;;;;;;;;24.54;84.92;98668.03;5025306;28;19960;-38
2022/05/11 01:41:26;;;;;;;;;;;;;;;24.43;86.00;98665.56;5010473;28;19920;-38
2022/05/11 01:43:51;;;;;;;;;;;;;;;24.58;84.72;98663.28;5008478;28;20541;-38
2022/05/11 01:46:17;;;;;;;;;;;;;;;24.26;85.08;98674.22;5026880;28;19917;-38
2022/05/11 01:48:43;;;;;;;;;;;;;;;24.42;85.22;98661.25;5023142;28;19917;-38
2022/05/11 01:51:09;;;;;;;;;;;;;;;24.57;84.28;98662.47;5025492;28;19985;-38
2022/05/11 01:53:35;;;;;;;;;;;;;;;24.56;82.13;98660.81;5007269;28;19921;-38
2022/05/11 01:56:00;;;;;;;;;;;;;;;24.39;80.07;98661.56;5023794;28;19928;-38
2022/05/11 01:58:25;;;;;;;;;;;;;;;24.43;80.91;98652.41;5024718;28;20113;-38
2022/05/11 02:00:51;;;;;;;;;;;;;;;24.25;83.56;98639.19;5025808;28;19929;-38
2022/05/11 02:03:20;;;;;;;;;;;;;;;24.39;83.38;98643.94;5024765;28;19966;-38
2022/05/11 02:08:30;;;;;;;;;;;;;;;24.46;81.09;98638.13;5030164;28;19927;-38
2022/05/11 02:10:56;;;;;;;;;;;;;;;24.13;82.24;98635.91;5026910;28;19921;-38
2022/05/11 02:13:21;;;;;;;;;;;;;;;23.70;81.49;98625.91;5024052;28;19925;-38
2022/05/11 02:15:48;;;;;;;;;;;;;;;23.85;82.98;98621.03;5025488;28;20374;-38
2022/05/11 02:18:13;;;;;;;;;;;;;;;24.31;80.61;98614.88;5025266;28;20247;-38
2022/05/11 02:20:38;;;;;;;;;;;;;;;24.09;81.01;98615.28;5021713;28;19931;-38
2022/05/11 02:23:03;;;;;;;;;;;;;;;24.43;80.39;98610.28;5027518;28;19920;-38
2022/05/11 02:25:29;;;;;;;;;;;;;;;24.19;79.37;98606.34;5025725;28;19991;-38
2022/05/11 02:27:54;;;;;;;;;;;;;;;24.33;78.57;98606.84;5024030;28;19927;-38
2022/05/11 02:30:24;;;;;;;;;;;;;;;24.31;78.86;98609.63;5021249;28;20036;-38
2022/05/11 02:32:49;;;;;;;;;;;;;;;23.76;78.70;98599.88;5026156;28;19975;-38
2022/05/11 02:35:18;;;;;;;;;;;;;;;24.19;80.07;98598.47;5029471;28;20374;-38
2022/05/11 02:37:50;;;;;;;;;;;;;;;23.99;79.50;98602.16;5030672;28;19921;-38
2022/05/11 02:40:17;;;;;;;;;;;;;;;23.61;80.20;98600.47;5033769;28;19925;-37
2022/05/11 02:42:42;;;;;;;;;;;;;;;23.27;84.07;98596.50;5033638;28;20436;-37
2022/05/11 02:45:08;;;;;;;;;;;;;;;23.39;81.46;98587.47;5033272;28;20095;-37
2022/05/11 02:47:33;;;;;;;;;;;;;;;23.02;86.18;98595.25;5029979;28;19945;-37
2022/05/11 02:49:59;;;;;;;;;;;;;;;23.25;85.32;98585.28;5030348;28;20803;-37
2022/05/11 02:52:24;;;;;;;;;;;;;;;23.18;84.61;98585.00;5026386;28;19964;-37
2022/05/11 02:54:49;;;;;;;;;;;;;;;23.29;84.45;98575.34;5032046;28;19952;-37
2022/05/11 02:57:15;;;;;;;;;;;;;;;23.61;81.92;98590.78;5029616;28;20688;-38
2022/05/11 02:59:40;;;;;;;;;;;;;;;23.96;80.34;98584.03;5009812;28;19966;-38
2022/05/11 03:02:06;;;;;;;;;;;;;;;24.03;78.94;98582.47;5031711;28;20012;-38
2022/05/11 03:04:31;;;;;;;;;;;;;;;23.85;80.70;98576.31;5032863;28;19932;-38
2022/05/11 03:06:56;;;;;;;;;;;;;;;24.00;79.65;98580.16;5033189;28;20007;-38
2022/05/11 03:09:21;;;;;;;;;;;;;;;23.30;80.58;98582.25;5037709;28;19947;-38
2022/05/11 03:11:47;;;;;;;;;;;;;;;22.87;86.91;98584.28;5037433;28;20282;-39
2022/05/11 03:14:12;;;;;;;;;;;;;;;22.85;86.80;98578.34;5034652;28;19975;-38
2022/05/11 03:16:37;;;;;;;;;;;;;;;23.02;86.34;98569.00;5032253;28;20290;-38
2022/05/11 03:19:03;;;;;;;;;;;;;;;23.56;84.26;98567.53;5031794;28;19931;-39
2022/05/11 03:21:28;;;;;;;;;;;;;;;23.59;84.47;98567.25;5033692;28;20974;-39
2022/05/11 03:23:54;;;;;;;;;;;;;;;23.73;84.54;98560.69;5035073;28;19975;-39
2022/05/11 03:26:19;;;;;;;;;;;;;;;23.63;85.95;98556.44;5030607;28;19967;-39
2022/05/11 03:28:44;;;;;;;;;;;;;;;23.62;86.72;98552.16;5032599;28;20024;-39
2022/05/11 03:31:10;;;;;;;;;;;;;;;23.53;87.79;98559.91;5033475;28;19917;-39
2022/05/11 03:36:19;;;;;;;;;;;;;;;23.64;87.78;98548.41;5029086;28;20456;-39
2022/05/11 03:38:44;;;;;;;;;;;;;;;23.57;88.02;98557.84;5028758;28;20035;-39
2022/05/11 03:41:09;;;;;;;;;;;;;;;23.58;87.72;98548.97;5029458;28;19916;-38
2022/05/11 03:43:34;;;;;;;;;;;;;;;23.56;87.67;98551.75;5029325;28;19921;-39
2022/05/11 03:46:00;;;;;;;;;;;;;;;23.62;86.70;98549.53;5033893;28;19914;-38
2022/05/11 03:48:25;;;;;;;;;;;;;;;23.41;85.24;98552.34;5028391;28;20682;-38
2022/05/11 03:50:50;;;;;;;;;;;;;;;23.45;86.50;98549.31;5032501;28;19983;-38
2022/05/11 03:53:16;;;;;;;;;;;;;;;23.30;86.08;98545.47;5028807;28;19921;-38
2022/05/11 03:55:41;;;;;;;;;;;;;;;23.24;86.85;98552.13;5031331;28;19939;-38
2022/05/11 03:58:06;;;;;;;;;;;;;;;23.31;87.32;98552.34;5035629;28;19920;-38
2022/05/11 04:00:32;;;;;;;;;;;;;;;23.37;87.03;98547.38;5031347;28;19928;-38
2022/05/11 04:02:58;;;;;;;;;;;;;;;23.48;87.20;98548.19;5035742;28;19917;-38
2022/05/11 04:05:23;;;;;;;;;;;;;;;23.50;86.96;98541.00;5030025;28;20652;-38
2022/05/11 04:07:48;;;;;;;;;;;;;;;23.55;86.24;98541.38;5031486;28;19928;-38
2022/05/11 04:10:14;;;;;;;;;;;;;;;23.59;85.85;98534.88;5034484;28;20003;-38
2022/05/11 04:12:40;;;;;;;;;;;;;;;23.63;85.94;98538.03;5030317;28;19916;-38
2022/05/11 04:15:05;;;;;;;;;;;;;;;23.57;86.38;98536.81;5032700;28;20686;-38
2022/05/11 04:17:31;;;;;;;;;;;;;;;23.55;87.01;98528.25;5034291;28;19928;-38
2022/05/11 04:19:56;;;;;;;;;;;;;;;23.51;86.00;98526.88;5031465;28;19936;-38
2022/05/11 04:22:21;;;;;;;;;;;;;;;23.59;85.44;98516.47;5021374;28;20382;-38
2022/05/11 04:24:47;;;;;;;;;;;;;;;23.49;85.82;98513.88;5030573;28;19920;-38
2022/05/11 04:27:13;;;;;;;;;;;;;;;23.39;86.53;98516.53;5037566;28;19925;-38
2022/05/11 04:29:38;;;;;;;;;;;;;;;23.45;87.04;98516.94;4998583;28;19928;-38
2022/05/11 04:32:04;;;;;;;;;;;;;;;23.54;87.46;98510.81;5028373;28;19924;-38
2022/05/11 04:34:29;;;;;;;;;;;;;;;23.33;88.70;98522.38;5032394;28;19927;-38
2022/05/11 04:36:54;;;;;;;;;;;;;;;23.45;88.21;98516.94;5030989;28;19927;-38
2022/05/11 04:39:20;;;;;;;;;;;;;;;23.41;89.22;98516.38;5037030;28;19925;-38
2022/05/11 04:41:45;;;;;;;;;;;;;;;23.31;89.86;98524.31;5016891;28;19927;-38
2022/05/11 04:44:11;;;;;;;;;;;;;;;23.27;90.19;98527.34;5029625;28;19925;-38
2022/05/11 04:46:36;;;;;;;;;;;;;;;23.48;89.28;98516.66;5034716;28;20547;-38
2022/05/11 04:49:19;;;;;;;;;;;;;;;23.61;89.03;98511.09;5013367;28;19975;-38
2022/05/11 04:51:44;;;;;;;;;;;;;;;23.67;89.45;98519.19;5032586;28;19974;-38
2022/05/11 04:54:11;;;;;;;;;;;;;;;23.99;89.43;98516.22;5033557;28;20019;-38
2022/05/11 04:56:38;;;;;;;;;;;;;;;24.24;89.24;98515.63;5033204;28;19917;-38
2022/05/11 04:59:03;;;;;;;;;;;;;;;24.37;88.59;98509.03;5019084;28;19971;-38
2022/05/11 05:01:28;;;;;;;;;;;;;;;24.47;88.22;98513.41;5032985;28;20016;-38
2022/05/11 05:03:53;;;;;;;;;;;;;;;24.46;88.68;98517.84;5044487;28;19916;-38
2022/05/11 05:06:19;;;;;;;;;;;;;;;24.49;88.67;98512.31;5032854;28;19924;-38
2022/05/11 05:08:44;;;;;;;;;;;;;;;24.42;89.47;98511.22;5038259;28;19924;-38
2022/05/11 05:11:09;;;;;;;;;;;;;;;24.53;88.69;98512.84;5037012;28;19916;-38
2022/05/11 05:13:34;;;;;;;;;;;;;;;24.68;89.10;98510.50;5037685;28;19916;-38
2022/05/11 05:16:00;;;;;;;;;;;;;;;24.94;87.79;98505.31;5037776;28;19945;-38
2022/05/11 05:18:25;;;;;;;;;;;;;;;24.93;87.46;98504.47;5042490;28;19917;-38
2022/05/11 05:20:50;;;;;;;;;;;;;;;24.84;88.19;98505.41;5038443;28;19932;-38
2022/05/11 05:23:16;;;;;;;;;;;;;;;24.98;86.84;98499.56;5036955;28;19927;-38
2022/05/11 05:25:41;;;;;;;;;;;;;;;24.99;86.92;98493.31;5020051;28;20862;-38
2022/05/11 05:31:05;;;;;;;;;;;;;;;25.19;82.62;98499.25;5041565;28;20469;-38
2022/05/11 05:33:31;;;;;;;;;;;;;;;24.76;85.72;98505.31;5038856;28;19960;-38
2022/05/11 05:35:56;;;;;;;;;;;;;;;25.15;85.53;98494.41;5038918;28;19924;-38
2022/05/11 05:38:22;;;;;;;;;;;;;;;25.16;84.74;98502.19;5037804;28;20392;-38
2022/05/11 05:40:47;;;;;;;;;;;;;;;25.27;84.99;98501.09;5039341;28;20615;-38
2022/05/11 05:43:12;;;;;;;;;;;;;;;25.41;85.22;98491.84;5040331;28;19924;-39
2022/05/11 05:45:38;;;;;;;;;;;;;;;25.30;86.53;98494.72;5018302;28;19912;-38
2022/05/11 05:48:03;;;;;;;;;;;;;;;25.30;85.48;98487.63;5041138;28;19970;-39
2022/05/11 05:50:28;;;;;;;;;;;;;;;25.41;87.08;98492.66;5031197;28;20008;-38
2022/05/11 05:52:55;;;;;;;;;;;;;;;25.40;86.89;98490.97;5040062;28;20673;-38
2022/05/11 05:55:21;;;;;;;;;;;;;;;25.52;86.37;98493.34;5041858;28;19927;-38
2022/05/11 05:57:47;;;;;;;;;;;;;;;25.56;85.20;98495.50;5038267;28;19921;-38
2022/05/11 06:00:12;;;;;;;;;;;;;;;25.54;84.26;98499.28;5039694;28;19921;-38
2022/05/11 06:02:37;;;;;;;;;;;;;;;25.67;85.05;98491.78;5035832;28;19917;-38
2022/05/11 06:05:03;;;;;;;;;;;;;;;25.56;85.00;98505.25;5030968;28;19916;-38
2022/05/11 06:07:28;;;;;;;;;;;;;;;25.83;83.48;98497.13;5035693;28;19917;-38
2022/05/11 06:09:53;;;;;;;;;;;;;;;25.45;85.75;98504.53;5019509;28;19917;-38
2022/05/11 06:12:19;;;;;;;;;;;;;;;25.81;83.69;98498.28;5036483;28;20007;-39
2022/05/11 06:14:44;;;;;;;;;;;;;;;26.01;82.79;98488.31;5034992;28;19994;-38
2022/05/11 06:17:24;;;;;;;;;;;;;;;25.67;79.96;98494.41;5033868;28;19969;-39
2022/05/11 06:19:50;;;;;;;;;;;;;;;25.65;79.10;98491.13;5035681;28;19976;-38
2022/05/11 06:22:15;;;;;;;;;;;;;;;25.79;84.61;98490.50;5033007;28;19952;-38
2022/05/11 06:24:40;;;;;;;;;;;;;;;26.03;84.35;98481.91;5031752;28;19920;-38
2022/05/11 06:27:07;;;;;;;;;;;;;;;25.79;82.27;98479.13;5038274;28;19920;-39
2022/05/11 06:29:32;;;;;;;;;;;;;;;25.94;81.80;98474.13;5030834;28;20473;-38
2022/05/11 06:31:57;;;;;;;;;;;;;;;25.88;82.04;98479.03;5034401;28;19924;-39
2022/05/11 06:34:24;;;;;;;;;;;;;;;26.12;81.07;98480.13;5033357;28;19923;-39
2022/05/11 06:36:50;;;;;;;;;;;;;;;26.22;80.83;98470.22;5029469;28;19917;-39
2022/05/11 06:39:15;;;;;;;;;;;;;;;26.24;81.27;98470.91;5031201;28;19948;-39
2022/05/11 06:41:40;;;;;;;;;;;;;;;26.63;82.26;98467.66;5030471;28;19917;-38
2022/05/11 06:44:08;;;;;;;;;;;;;;;26.68;79.65;98465.34;5015996;28;19917;-39
2022/05/11 06:46:34;;;;;;;;;;;;;;;26.29;79.43;98455.38;5030593;28;20442;-38
2022/05/11 06:48:59;;;;;;;;;;;;;;;26.52;76.22;98460.03;5033828;28;20011;-38
2022/05/11 06:51:24;;;;;;;;;;;;;;;27.15;77.99;98463.03;5028082;28;19998;-38
2022/05/11 06:59:21;;;;;;;;;;;;;;;27.09;74.50;98452.09;5032656;28;19968;-38
2022/05/11 07:01:47;;;;;;;;;;;;;;;27.04;76.53;98441.22;5030547;28;19956;-38
2022/05/11 07:04:12;;;;;;;;;;;;;;;26.93;77.19;98452.13;5026692;28;20004;-38
2022/05/11 07:06:37;;;;;;;;;;;;;;;27.24;71.94;98448.81;5031163;28;20297;-38
2022/05/11 07:09:03;;;;;;;;;;;;;;;26.64;70.70;98447.34;5028582;28;20656;-38
2022/05/11 07:14:13;;;;;;;;;;;;;;;27.52;67.37;98442.09;5028286;28;19928;-38
2022/05/11 07:16:39;;;;;;;;;;;;;;;28.02;70.10;98439.25;5032324;28;20647;-38
2022/05/11 07:19:05;;;;;;;;;;;;;;;28.46;67.91;98433.34;5031312;28;19921;-39
2022/05/11 07:21:30;;;;;;;;;;;;;;;28.40;67.28;98444.66;5031758;28;19936;-38
2022/05/11 07:23:55;;;;;;;;;;;;;;;27.66;67.66;98435.25;5016172;28;20345;-39
2022/05/11 07:26:21;;;;;;;;;;;;;;;28.27;62.13;98439.94;5036884;28;19945;-38
2022/05/11 07:28:46;;;;;;;;;;;;;;;28.35;61.81;98437.22;5034535;28;19917;-38
2022/05/11 07:31:11;;;;;;;;;;;;;;;27.74;66.11;98429.13;5032186;28;19917;-38
2022/05/11 07:33:36;;;;;;;;;;;;;;;28.26;64.73;98436.47;5033385;28;21053;-38
2022/05/11 07:36:02;;;;;;;;;;;;;;;28.63;60.27;98434.88;5032553;28;20878;-38
2022/05/11 07:38:27;;;;;;;;;;;;;;;27.37;65.19;98443.84;5017964;28;20004;-38
2022/05/11 07:40:52;;;;;;;;;;;;;;;27.40;67.00;98440.84;5011500;28;19950;-38
2022/05/11 07:43:20;;;;;;;;;;;;;;;26.73;68.91;98434.97;5033256;28;19917;-38
2022/05/11 07:45:45;;;;;;;;;;;;;;;27.50;65.10;98433.50;5034498;28;20294;-39
2022/05/11 07:48:10;;;;;;;;;;;;;;;27.51;61.40;98435.19;5036706;28;19920;-38
2022/05/11 07:50:36;;;;;;;;;;;;;;;28.50;58.41;98426.72;5019586;28;19917;-38
2022/05/11 07:53:01;;;;;;;;;;;;;;;28.11;63.75;98438.22;5036030;28;19921;-39
2022/05/11 07:55:28;;;;;;;;;;;;;;;29.08;57.76;98424.38;5034807;28;20726;-38
2022/05/11 08:00:37;;;;;;;;;;;;;;;28.06;58.12;98435.28;5032048;28;19932;-38
2022/05/11 08:03:02;;;;;;;;;;;;;;;27.83;54.97;98433.38;5033045;28;19916;-38
2022/05/11 08:05:29;;;;;;;;;;;;;;;27.46;57.70;98432.22;5032333;28;20019;-38
2022/05/11 08:07:55;;;;;;;;;;;;;;;28.84;56.39;98425.44;5032125;28;19987;-38
2022/05/11 08:10:41;;;;;;;;;;;;;;;27.87;59.07;98428.59;5020221;28;19923;-38
2022/05/11 08:13:07;;;;;;;;;;;;;;;28.22;58.55;98429.06;5031476;28;19928;-39
2022/05/11 08:15:33;;;;;;;;;;;;;;;28.28;56.55;98428.31;5029525;28;19920;-38
2022/05/11 08:17:59;;;;;;;;;;;;;;;28.41;56.41;98425.91;5033796;28;19916;-38
2022/05/11 08:20:25;;;;;;;;;;;;;;;28.51;55.66;98425.69;5027530;28;20373;-38
2022/05/11 08:22:51;;;;;;;;;;;;;;;28.95;55.41;98414.38;5027042;28;19921;-38
2022/05/11 08:25:19;;;;;;;;;;;;;;;27.93;57.02;98428.72;5031908;28;19917;-38
2022/05/11 08:27:44;;;;;;;;;;;;;;;28.72;55.74;98417.09;5030646;28;20404;-38
2022/05/11 08:35:39;;;;;;;;;;;;;;;28.35;52.19;98414.22;5030169;28;19924;-39
2022/05/11 08:38:04;;;;;;;;;;;;;;;28.22;55.25;98416.63;5012622;28;19917;-38
2022/05/11 08:40:32;;;;;;;;;;;;;;;29.53;53.94;98409.28;5031114;28;19966;-38
2022/05/11 08:42:57;;;;;;;;;;;;;;;28.65;57.10;98416.19;5015358;28;19916;-38
2022/05/11 08:45:23;;;;;;;;;;;;;;;29.12;56.18;98413.22;5010018;28;19916;-39
2022/05/11 08:47:48;;;;;;;;;;;;;;;27.59;55.63;98428.19;5028430;28;19920;-38
2022/05/11 08:50:18;;;;;;;;;;;;;;;28.92;55.39;98422.69;5026329;28;19971;-38
2022/05/11 08:52:47;;;;;;;;;;;;;;;28.29;55.59;98427.34;5010471;28;19917;-39
2022/05/11 08:55:21;;;;;;;;;;;;;;;28.49;55.20;98415.31;5035394;28;19924;-38
2022/05/11 08:57:47;;;;;;;;;;;;;;;28.13;53.58;98423.81;5026642;28;19925;-38
2022/05/11 09:00:13;;;;;;;;;;;;;;;28.74;54.85;98426.50;5030374;28;19943;-38
2022/05/11 09:02:49;;;;;;;;;;;;;;;28.66;51.92;98413.31;5029359;28;19945;-38
2022/05/11 09:05:16;;;;;;;;;;;;;;;29.03;56.58;98409.00;5010979;28;19916;-38
2022/05/11 09:07:44;;;;;;;;;;;;;;;28.56;57.08;98418.88;5029836;28;20423;-38
2022/05/11 09:10:09;;;;;;;;;;;;;;;29.96;50.34;98404.91;5028643;28;19917;-38
2022/05/11 09:12:35;;;;;;;;;;;;;;;30.38;48.54;98405.97;5015387;28;19917;-38
2022/05/11 09:15:03;;;;;;;;;;;;;;;29.23;51.09;98414.59;5028281;28;20788;-39
2022/05/11 09:17:31;;;;;;;;;;;;;;;28.55;52.57;98417.22;5026958;28;20030;-39
2022/05/11 09:20:08;;;;;;;;;;;;;;;28.88;52.62;98410.81;5036776;28;20409;-38
2022/05/11 09:22:35;;;;;;;;;;;;;;;28.88;53.01;98411.63;5029877;28;19921;-38
2022/05/11 09:25:11;;;;;;;;;;;;;;;29.10;50.96;98394.06;5027176;28;19932;-39
2022/05/11 09:27:36;;;;;;;;;;;;;;;30.03;49.90;98397.84;5007884;28;19924;-39
2022/05/11 09:30:14;;;;;;;;;;;;;;;30.05;50.01;98399.50;5035128;28;19916;-39
2022/05/11 09:32:42;;;;;;;;;;;;;;;30.60;48.48;98401.44;5030587;28;19913;-38
2022/05/11 09:35:11;;;;;;;;;;;;;;;29.80;50.93;98402.50;5009536;28;19923;-39
2022/05/11 09:37:36;;;;;;;;;;;;;;;29.83;51.57;98394.16;5030608;28;19987;-39
2022/05/11 09:40:07;;;;;;;;;;;;;;;30.38;46.63;98398.00;5017970;28;19931;-39
2022/05/11 09:42:32;;;;;;;;;;;;;;;30.44;50.24;98397.22;5028820;28;20362;-39
2022/05/11 09:44:58;;;;;;;;;;;;;;;30.61;50.16;98391.66;5039382;28;19971;-40
2022/05/11 09:47:25;;;;;;;;;;;;;;;31.02;47.34;98389.09;5035404;28;19950;-39
2022/05/11 09:49:51;;;;;;;;;;;;;;;30.42;48.81;98393.94;5032271;28;20054;-39
2022/05/11 09:52:27;;;;;;;;;;;;;;;31.09;49.95;98391.81;5029735;28;20473;-39
2022/05/11 09:54:52;;;;;;;;;;;;;;;28.90;48.77;98393.72;5034217;28;19970;-39
2022/05/11 09:57:20;;;;;;;;;;;;;;;29.56;49.87;98385.88;5030589;28;20020;-39
2022/05/11 09:59:52;;;;;;;;;;;;;;;29.68;49.51;98396.84;5037051;28;20354;-39
2022/05/11 10:02:39;;;;;;;;;;;;;;;30.25;46.17;98386.41;5017533;28;20219;-39
2022/05/11 10:05:24;;;;;;;;;;;;;;;29.76;47.07;98394.06;5032664;28;20378;-39
2022/05/11 10:07:57;;;;;;;;;;;;;;;30.00;48.30;98395.56;5017934;28;20283;-39
2022/05/11 10:10:23;;;;;;;;;;;;;;;31.35;45.26;98382.31;5012393;28;19961;-39
2022/05/11 10:12:48;;;;;;;;;;;;;;;30.92;44.44;98382.47;5031401;28;19928;-39
2022/05/11 10:24:01;;;;;;;;;;;;;;;31.17;46.17;98381.00;5021872;28;20016;-39
2022/05/11 10:26:29;;;;;;;;;;;;;;;31.09;44.32;98375.00;5034124;28;19917;-39
2022/05/11 10:29:01;;;;;;;;;;;;;;;31.04;45.40;98375.59;5015085;28;20075;-39
2022/05/11 10:31:37;;;;;;;;;;;;;;;31.04;47.18;98375.59;5014658;28;19917;-39
2022/05/11 10:34:21;;;;;;;;;;;;;;;31.08;45.77;98368.88;5031110;28;20293;-39
2022/05/11 10:36:47;;;;;;;;;;;;;;;30.20;52.45;98373.72;5036753;28;19959;-39
2022/05/11 10:39:21;;;;;;;;;;;;;;;29.77;52.59;98373.69;5030765;28;20002;-39
2022/05/11 10:41:49;;;;;;;;;;;;;;;29.51;51.88;98358.22;5034033;28;20771;-39
2022/05/11 10:44:33;;;;;;;;;;;;;;;30.68;44.56;98360.63;5035383;28;19924;-39
2022/05/11 10:46:58;;;;;;;;;;;;;;;30.05;46.87;98359.66;5033937;28;20745;-39
2022/05/11 10:49:24;;;;;;;;;;;;;;;29.60;45.36;98363.25;5031414;28;19913;-39
2022/05/11 10:51:52;;;;;;;;;;;;;;;30.05;44.38;98354.34;5037149;28;19923;-39
2022/05/11 10:54:36;;;;;;;;;;;;;;;30.32;47.62;98358.91;5034170;28;19924;-38
2022/05/11 10:57:02;;;;;;;;;;;;;;;30.22;44.25;98355.72;5035901;28;19959;-38
2022/05/11 10:59:27;;;;;;;;;;;;;;;30.66;41.97;98346.72;5034567;28;20578;-38
2022/05/11 11:01:53;;;;;;;;;;;;;;;30.28;44.87;98352.34;5037884;28;19917;-38
2022/05/11 11:04:37;;;;;;;;;;;;;;;29.89;47.92;98344.81;5039876;28;19931;-38
2022/05/11 11:07:28;;;;;;;;;;;;;;;29.45;43.40;98337.78;5034750;28;20449;-38
2022/05/11 11:09:53;;;;;;;;;;;;;;;31.55;42.59;98338.00;5030909;28;20042;-38
2022/05/11 11:12:19;;;;;;;;;;;;;;;31.44;41.43;98338.56;5035656;28;19925;-38
2022/05/11 11:14:45;;;;;;;;;;;;;;;31.08;41.41;98341.47;5032427;28;19971;-38
2022/05/11 11:17:10;;;;;;;;;;;;;;;30.59;40.31;98329.91;5022909;28;20003;-38
2022/05/11 11:19:36;;;;;;;;;;;;;;;31.77;38.14;98335.19;5037878;28;19945;-38
2022/05/11 11:22:03;;;;;;;;;;;;;;;31.29;42.86;98335.22;5035767;28;19931;-38
2022/05/11 11:24:28;;;;;;;;;;;;;;;31.72;41.98;98330.47;5012309;28;19917;-38
2022/05/11 11:26:58;;;;;;;;;;;;;;;31.99;40.34;98326.03;5022455;28;19917;-38
2022/05/11 11:29:23;;;;;;;;;;;;;;;32.70;39.13;98316.59;5013269;28;20400;-38
2022/05/11 11:31:58;;;;;;;;;;;;;;;32.78;39.04;98313.72;5015628;28;19917;-38
2022/05/11 11:34:25;;;;;;;;;;;;;;;31.12;40.86;98322.25;5035064;28;19917;-38
2022/05/11 11:36:51;;;;;;;;;;;;;;;30.82;40.04;98313.69;5017306;28;19917;-38
2022/05/11 11:39:35;;;;;;;;;;;;;;;30.72;43.64;98318.53;5033550;28;19955;-38
2022/05/11 11:42:01;;;;;;;;;;;;;;;31.01;40.85;98317.50;5030364;28;20421;-38
2022/05/11 11:44:31;;;;;;;;;;;;;;;30.92;43.42;98310.69;5017750;28;19959;-38
2022/05/11 11:46:57;;;;;;;;;;;;;;;30.89;40.40;98311.09;5033483;28;19916;-38
2022/05/11 11:49:26;;;;;;;;;;;;;;;31.52;39.98;98303.81;5018807;28;19924;-38
2022/05/11 11:51:52;;;;;;;;;;;;;;;32.53;39.11;98300.22;5030659;28;20313;-38
2022/05/11 11:54:26;;;;;;;;;;;;;;;30.72;43.57;98303.38;5032328;28;19920;-38
2022/05/11 11:56:54;;;;;;;;;;;;;;;30.75;46.34;98313.66;5017616;28;19913;-38
2022/05/11 11:59:25;;;;;;;;;;;;;;;30.10;45.90;98318.25;5030876;28;19924;-38
2022/05/11 12:01:54;;;;;;;;;;;;;;;30.93;46.66;98299.03;5033387;28;19996;-38
2022/05/11 12:04:37;;;;;;;;;;;;;;;31.15;46.34;98297.91;5024921;28;20000;-38
2022/05/11 12:15:18;;;;;;;;;;;;;;;30.18;50.22;98291.56;5021571;28;20504;-38
2022/05/11 12:17:43;;;;;;;;;;;;;;;31.72;43.94;98290.53;5035695;28;19955;-38
2022/05/11 12:20:09;;;;;;;;;;;;;;;30.49;47.01;98281.56;5038598;28;19999;-38
2022/05/11 12:22:39;;;;;;;;;;;;;;;32.03;42.65;98289.97;5031922;28;20044;-38
2022/05/11 12:25:09;;;;;;;;;;;;;;;31.05;45.68;98287.63;5034811;28;19917;-38
2022/05/11 12:27:35;;;;;;;;;;;;;;;32.80;43.27;98274.31;5017066;28;19917;-38
2022/05/11 12:30:04;;;;;;;;;;;;;;;32.46;46.54;98284.22;5018777;28;19923;-38
2022/05/11 12:32:32;;;;;;;;;;;;;;;32.55;45.00;98278.69;5032450;28;20444;-38
2022/05/11 12:34:58;;;;;;;;;;;;;;;31.67;44.52;98277.81;5034336;28;19917;-38
2022/05/11 12:37:25;;;;;;;;;;;;;;;31.07;46.07;98283.97;5016807;28;19916;-38
2022/05/11 12:39:54;;;;;;;;;;;;;;;31.54;45.98;98280.44;5033375;28;19917;-38
2022/05/11 12:42:29;;;;;;;;;;;;;;;31.02;47.31;98276.59;5029806;28;19912;-38
2022/05/11 12:44:55;;;;;;;;;;;;;;;33.04;42.76;98269.31;5006678;28;20638;-38
2022/05/11 12:47:20;;;;;;;;;;;;;;;32.83;41.30;98257.91;5012453;28;20004;-38
2022/05/11 12:49:48;;;;;;;;;;;;;;;31.40;46.70;98284.06;5033020;28;19916;-38
2022/05/11 12:52:17;;;;;;;;;;;;;;;32.36;46.54;98264.34;5012510;28;19963;-38
2022/05/11 12:54:49;;;;;;;;;;;;;;;31.94;44.03;98269.06;5036830;28;19916;-38
2022/05/11 12:57:17;;;;;;;;;;;;;;;33.62;45.52;98261.25;5012686;28;19930;-38
2022/05/11 12:59:52;;;;;;;;;;;;;;;31.46;49.51;98270.00;5032731;28;19924;-38
2022/05/11 13:02:21;;;;;;;;;;;;;;;33.25;43.66;98258.34;5031376;28;21100;-38
2022/05/11 13:04:47;;;;;;;;;;;;;;;33.26;42.86;98257.34;5030046;28;19921;-38
2022/05/11 13:07:12;;;;;;;;;;;;;;;33.77;40.10;98246.78;5012079;28;20008;-38
2022/05/11 13:09:39;;;;;;;;;;;;;;;32.48;42.69;98250.19;5035707;28;19917;-38
2022/05/11 13:12:05;;;;;;;;;;;;;;;33.44;40.60;98253.13;5033868;28;19916;-38
2022/05/11 13:14:35;;;;;;;;;;;;;;;32.50;42.87;98253.47;5029645;28;20377;-38
2022/05/11 13:17:02;;;;;;;;;;;;;;;33.34;41.23;98246.38;5031999;28;20772;-38
2022/05/11 13:19:37;;;;;;;;;;;;;;;32.49;42.52;98232.34;5013556;28;20108;-38
2022/05/11 13:22:03;;;;;;;;;;;;;;;31.73;46.60;98240.78;5016218;28;19955;-38
2022/05/11 13:24:45;;;;;;;;;;;;;;;31.61;48.64;98241.38;5030919;28;20175;-38
2022/05/11 13:27:29;;;;;;;;;;;;;;;31.42;48.21;98236.84;5032029;28;19916;-38
2022/05/11 13:30:21;;;;;;;;;;;;;;;32.86;42.37;98222.78;5028172;28;19920;-38